Wailuku, Hawaii
Current Conditions -  °F | °C
As of 8:54 PM on Tuesday 25 Nov 2014 (Local Time) from PHOG Reporting Station
Scattered Clouds Scattered Clouds  
Wind Chill: 70°   Ceiling: Unl
Heat Index: 70°   Visibility: 10mi
Dew Point: 61°   Wind: 7mph
Humidity: 73%   Direction: 50°NE
Pressure: 30.07"   Gusts: NA
Location:  20.89°N, 156.5°W
Report Text: PHOG 260654Z 05006KT 10SM SCT060 21/16 A3007 RMK AO2 SLP189 T02110161 $
Loading
Personal Weather Stations






























Interactive Weather Map New forecast layout! Learn more

10-Day Weather Forecast

Advertisements
Track Severe Weather on mobile